Cascade Locks, OR (97014)

4:20 AM PDT on September 23, 2014 (GMT -0700)
Stabler | Change Station
CLOSE
Current Station
Personal Weather Station
Location: Carson, WA
Elevation: 1060 ft
Nearby Weather Stations
Active Advisory: Special Statement

Elev 1060 ft 45.79 °N, 121.91 °W | Updated 5 minutes ago

Partly Cloudy
Partly Cloudy
54.5 °F
Feels Like 54.5 °F
N
-
Wind Variable Wind from North

Today
High -- | Low -- °F
--% Chance of Precip.
Yesterday
High -- | Low -- °F
Precip. -- in
6:55 AM 7:02 PM
Waning Crescent, 1% visible
Pressure 29.85 in
Visibility 10.0 miles
Clouds Clear
Dew Point 51 °F
Humidity 89%
Rainfall 0.00 in
Snow Depth 2 in , 0 in , 0 in
UV out of 12
Pollen .40 out of 12
Air Quality Not available.
Flu Activity Not available.
METAR KTTD 231053Z AUTO 11003KT 10SM CLR 16/13 A2985 RMK AO2 SLP108 T01560133

More Conditions Fewer Conditions

Pressure 29.85 in
Visibility 10.0 miles
Clouds Clear
Dew Point 51 °F
Humidity 89%
Rainfall 0.00 in
Snow Depth 2 in , 0 in , 0 in
UV out of 12
Pollen .40 out of 12
Air Quality Not available.
Flu Activity Not available.
METAR KTTD 231053Z AUTO 11003KT 10SM CLR 16/13 A2985 RMK AO2 SLP108 T01560133

More Conditions Fewer Conditions

10-Day Weather Forecast

Almanac

Astronomy

Sep. 23, 2014 Rise Set
Actual Time 6:55 AM PDT 7:02 PM PDT
Civil Twilight 6:26 AM PDT 7:32 PM PDT
Nautical Twilight 5:51 AM PDT 8:07 PM PDT
Astronomical Twilight 5:15 AM PDT 8:42 PM PDT
Moon 6:24 AM PDT 6:43 PM PDT
Length of Visible Light 13h 06m
Length of Day
12h 07m
Tomorrow will be 3m 11s shorter.
Waning Crescent, 1% of the Moon is Illuminated
Today
Waning Crescent
Sep 24
New
Oct 1
First Quarter
Oct 8
Full
Oct 15
Last Quarter

Today's Extremes

State Highs State Lows

Community

WunderPhotos

Upload Photos

1,755,645 photos uploaded!

Nearby

Snow Depth

Station Depth Elevation
Lucky Strike 2 in 5050 ft
Mud Ridge 0 in 3800 ft
Irish Taylor 0 in 5500 ft
Tipton 0 in 5150 ft
Annie Springs 0 in 6020 ft

Earthquake Activity

City Distance Mag. Time & Date
No recent earthquake activity has been reported nearby.
Minimum magnitude displayed is 2.5.

Coastal Water Temperatures

Place Temperature
No Stations Reporting

Nearby Weather Stations